createdAt,value
2024-02-15T00:01:43.705Z,7.70
2024-02-15T00:04:12.358Z,7.72
2024-02-15T00:06:39.229Z,7.74
2024-02-15T00:09:05.900Z,7.77
2024-02-15T00:11:33.716Z,7.82
2024-02-15T00:14:01.507Z,7.86
2024-02-15T00:16:28.733Z,7.86
2024-02-15T00:18:56.644Z,7.89
2024-02-15T00:21:27.014Z,7.91
2024-02-15T00:23:57.048Z,7.94
2024-02-15T00:26:23.895Z,7.94
2024-02-15T00:28:50.540Z,7.97
2024-02-15T00:31:17.184Z,8.00
2024-02-15T00:33:44.402Z,8.00
2024-02-15T00:36:11.728Z,8.00
2024-02-15T00:38:38.492Z,8.05
2024-02-15T00:41:06.922Z,8.06
2024-02-15T00:43:36.958Z,8.11
2024-02-15T00:46:04.225Z,8.14
2024-02-15T00:48:31.330Z,8.14
2024-02-15T00:50:59.275Z,8.06
2024-02-15T00:53:26.208Z,7.93
2024-02-15T00:55:53.285Z,7.86
2024-02-15T00:58:19.861Z,7.87
2024-02-15T01:00:46.520Z,7.86
2024-02-15T01:03:13.195Z,7.90
2024-02-15T01:05:39.905Z,7.93
2024-02-15T01:08:07.432Z,7.98
2024-02-15T01:10:35.064Z,8.01
2024-02-15T01:13:01.972Z,7.95
2024-02-15T01:15:28.675Z,7.91
2024-02-15T01:17:56.136Z,7.90
2024-02-15T01:20:22.832Z,7.91
2024-02-15T01:22:49.358Z,7.93
2024-02-15T01:25:16.866Z,7.80
2024-02-15T01:27:43.713Z,7.76
2024-02-15T01:30:11.470Z,7.82
2024-02-15T01:32:38.480Z,7.82
2024-02-15T01:35:05.387Z,7.84
2024-02-15T01:37:32.016Z,7.80
2024-02-15T01:39:58.574Z,7.78
2024-02-15T01:42:25.626Z,7.84
2024-02-15T01:44:54.132Z,7.87
2024-02-15T01:47:21.461Z,7.86
2024-02-15T01:49:50.134Z,7.90
2024-02-15T01:52:18.684Z,7.92
2024-02-15T01:54:47.050Z,7.93
2024-02-15T01:57:13.837Z,7.93
2024-02-15T01:59:40.775Z,7.95
2024-02-15T02:02:11.518Z,7.96
2024-02-15T02:04:39.555Z,7.97
2024-02-15T02:07:06.352Z,7.99
2024-02-15T02:09:33.115Z,7.94
2024-02-15T02:12:00.723Z,7.94
2024-02-15T02:17:14.870Z,7.96
2024-02-15T02:19:42.881Z,7.89
2024-02-15T02:22:10.618Z,7.87
2024-02-15T02:24:46.501Z,7.84
2024-02-15T02:27:15.026Z,7.82
2024-02-15T02:29:47.753Z,7.80
2024-02-15T02:32:14.485Z,7.75
2024-02-15T02:34:42.095Z,7.74
2024-02-15T02:37:09.800Z,7.68
2024-02-15T02:39:44.600Z,7.61
2024-02-15T02:42:12.481Z,7.57
2024-02-15T02:44:39.088Z,7.50
2024-02-15T02:47:05.683Z,7.22
2024-02-15T02:49:32.742Z,7.16
2024-02-15T02:51:59.322Z,7.13
2024-02-15T02:54:25.913Z,7.10
2024-02-15T02:56:52.471Z,7.11
2024-02-15T02:59:19.061Z,7.02
2024-02-15T03:01:45.758Z,7.01
2024-02-15T03:04:13.537Z,6.99
2024-02-15T03:06:43.406Z,6.99
2024-02-15T03:09:11.147Z,6.98
2024-02-15T03:11:37.879Z,6.97
2024-02-15T03:14:05.371Z,6.97
2024-02-15T03:16:35.122Z,7.00
2024-02-15T03:19:05.815Z,7.04
2024-02-15T03:21:32.761Z,7.07
2024-02-15T03:23:59.590Z,7.11
2024-02-15T03:26:39.623Z,7.13
2024-02-15T03:29:06.385Z,7.16
2024-02-15T03:31:34.733Z,7.19
2024-02-15T03:34:01.849Z,7.25
2024-02-15T03:36:30.401Z,7.31
2024-02-15T03:38:57.178Z,7.34
2024-02-15T03:41:24.103Z,7.36
2024-02-15T03:43:51.549Z,7.31
2024-02-15T03:46:18.148Z,7.31
2024-02-15T03:48:45.546Z,7.31
2024-02-15T03:51:12.453Z,7.36
2024-02-15T03:53:39.053Z,7.39
2024-02-15T03:56:05.793Z,7.40
2024-02-15T03:58:34.047Z,7.39
2024-02-15T04:01:00.872Z,7.41
2024-02-15T04:03:27.641Z,7.45
2024-02-15T04:05:54.395Z,7.48
2024-02-15T04:08:21.051Z,7.52
2024-02-15T04:10:50.180Z,7.54
2024-02-15T04:13:18.387Z,7.57
2024-02-15T04:15:45.436Z,7.57
2024-02-15T04:18:13.714Z,7.57
2024-02-15T04:20:46.009Z,7.57
2024-02-15T04:23:13.131Z,7.57
2024-02-15T04:25:40.191Z,7.46
2024-02-15T04:28:07.798Z,7.45
2024-02-15T04:30:36.138Z,7.49
2024-02-15T04:33:02.823Z,7.52
2024-02-15T04:35:32.264Z,7.55
2024-02-15T04:37:58.944Z,7.59
2024-02-15T04:40:25.485Z,7.40
2024-02-15T04:42:52.129Z,7.34
2024-02-15T04:45:20.108Z,7.38
2024-02-15T04:47:47.728Z,7.40
2024-02-15T04:50:14.793Z,7.42
2024-02-15T04:52:41.330Z,7.43
2024-02-15T04:55:08.376Z,7.47
2024-02-15T04:57:37.903Z,7.53
2024-02-15T05:00:12.642Z,7.57
2024-02-15T05:02:42.318Z,7.58
2024-02-15T05:05:09.786Z,7.62
2024-02-15T05:07:38.685Z,7.67
2024-02-15T05:10:07.390Z,7.70
2024-02-15T05:12:36.904Z,7.75
2024-02-15T05:15:11.405Z,7.78
2024-02-15T05:17:42.182Z,7.85
2024-02-15T05:20:14.849Z,7.82
2024-02-15T05:22:50.359Z,7.84
2024-02-15T05:25:23.787Z,7.89
2024-02-15T05:27:51.555Z,7.83
2024-02-15T05:30:18.429Z,7.78
2024-02-15T05:32:46.725Z,7.80
2024-02-15T05:35:13.621Z,7.84
2024-02-15T05:37:40.535Z,7.89
2024-02-15T05:40:08.524Z,7.91
2024-02-15T05:42:36.079Z,7.95
2024-02-15T05:45:41.531Z,7.92
2024-02-15T05:48:08.971Z,7.94
2024-02-15T05:50:36.153Z,7.95
2024-02-15T05:53:03.122Z,7.92
2024-02-15T05:55:30.580Z,7.82
2024-02-15T05:57:57.169Z,7.85
2024-02-15T06:00:24.293Z,7.86
2024-02-15T06:02:51.754Z,7.88
2024-02-15T06:05:21.254Z,7.66
2024-02-15T06:07:48.677Z,7.73
2024-02-15T06:10:16.524Z,7.76
2024-02-15T06:12:44.087Z,7.72
2024-02-15T06:15:16.489Z,7.78
2024-02-15T06:17:45.407Z,7.80
2024-02-15T06:20:15.193Z,7.85
2024-02-15T06:22:42.611Z,7.92
2024-02-15T06:25:11.272Z,8.03
2024-02-15T06:27:41.875Z,8.08
2024-02-15T06:30:29.185Z,8.16
2024-02-15T06:33:14.711Z,8.21
2024-02-15T06:35:59.885Z,8.28
2024-02-15T06:38:45.197Z,8.31
2024-02-15T06:41:11.944Z,8.34
2024-02-15T06:43:38.683Z,8.28
2024-02-15T06:46:08.020Z,8.31
2024-02-15T06:48:34.786Z,8.06
2024-02-15T06:51:01.633Z,8.06
2024-02-15T06:53:28.206Z,8.15
2024-02-15T06:55:54.920Z,8.05
2024-02-15T06:58:21.688Z,8.02
2024-02-15T07:00:51.396Z,8.10
2024-02-15T07:03:18.235Z,8.21
2024-02-15T07:05:45.330Z,8.30
2024-02-15T07:08:12.125Z,8.40
2024-02-15T07:10:42.527Z,8.52
2024-02-15T07:13:09.155Z,8.62
2024-02-15T07:15:39.127Z,8.69
2024-02-15T07:18:07.496Z,8.77
2024-02-15T07:20:35.453Z,8.84
2024-02-15T07:23:02.207Z,8.91
2024-02-15T07:25:28.890Z,8.98
2024-02-15T07:27:55.564Z,9.02
2024-02-15T07:30:24.909Z,9.08
2024-02-15T07:32:52.757Z,9.13
2024-02-15T07:35:19.473Z,9.15
2024-02-15T07:37:56.946Z,9.18
2024-02-15T07:40:23.859Z,9.18
2024-02-15T07:42:50.526Z,9.18
2024-02-15T07:45:18.375Z,9.22
2024-02-15T07:47:46.258Z,9.23
2024-02-15T07:50:20.414Z,9.30
2024-02-15T07:52:49.013Z,9.37
2024-02-15T07:55:15.825Z,9.42
2024-02-15T07:57:42.517Z,9.49
2024-02-15T08:00:12.177Z,9.49
2024-02-15T08:02:41.931Z,9.37
2024-02-15T08:05:11.620Z,9.42
2024-02-15T08:07:48.795Z,9.45
2024-02-15T08:10:15.537Z,9.31
2024-02-15T08:12:43.894Z,9.34
2024-02-15T08:15:13.282Z,9.35
2024-02-15T08:17:47.399Z,9.24
2024-02-15T08:20:14.884Z,9.16
2024-02-15T08:22:42.132Z,9.08
2024-02-15T08:25:13.116Z,8.90
2024-02-15T08:27:45.610Z,8.75
2024-02-15T08:30:14.648Z,8.83
2024-02-15T08:32:43.643Z,8.87
2024-02-15T08:35:11.709Z,8.92
2024-02-15T08:37:39.934Z,8.98
2024-02-15T08:40:12.066Z,9.11
2024-02-15T08:42:42.980Z,9.16
2024-02-15T08:45:10.882Z,9.30
2024-02-15T08:47:42.873Z,9.46
2024-02-15T08:50:11.063Z,9.60
2024-02-15T08:52:41.582Z,9.63
2024-02-15T08:55:15.731Z,9.74
2024-02-15T08:57:45.134Z,9.74
2024-02-15T09:00:17.168Z,9.75
2024-02-15T09:02:45.286Z,9.83
2024-02-15T09:05:15.710Z,9.74
2024-02-15T09:07:44.010Z,9.58
2024-02-15T09:10:11.701Z,9.64
2024-02-15T09:12:42.174Z,9.67
2024-02-15T09:15:14.256Z,9.77
2024-02-15T09:17:41.366Z,9.82
2024-02-15T09:20:08.990Z,9.85
2024-02-15T09:22:37.067Z,9.91
2024-02-15T09:25:04.484Z,9.93
2024-02-15T09:27:31.073Z,9.97
2024-02-15T09:29:57.709Z,9.57
2024-02-15T09:32:24.484Z,9.67
2024-02-15T09:34:51.149Z,9.77
2024-02-15T09:37:17.776Z,9.89
2024-02-15T09:39:44.357Z,10.01
2024-02-15T09:42:11.255Z,10.08
2024-02-15T09:44:38.575Z,10.18
2024-02-15T09:47:08.085Z,10.25
2024-02-15T09:49:40.918Z,10.34
2024-02-15T09:52:17.304Z,10.13
2024-02-15T09:54:45.157Z,10.18
2024-02-15T09:57:12.763Z,10.31
2024-02-15T09:59:41.141Z,10.42
2024-02-15T10:02:12.199Z,10.52
2024-02-15T10:04:41.200Z,10.60
2024-02-15T10:07:10.736Z,10.48
2024-02-15T10:09:43.905Z,10.59
2024-02-15T10:12:10.802Z,10.72
2024-02-15T10:14:37.665Z,10.79
2024-02-15T10:17:18.356Z,10.83
2024-02-15T10:19:45.497Z,10.91
2024-02-15T10:22:15.939Z,10.97
2024-02-15T10:24:42.825Z,11.09
2024-02-15T10:27:11.512Z,11.09
2024-02-15T10:29:39.905Z,11.09
2024-02-15T10:32:11.393Z,11.18
2024-02-15T10:34:48.329Z,11.24
2024-02-15T10:37:20.265Z,11.29
2024-02-15T10:39:48.033Z,11.37
2024-02-15T10:42:16.553Z,11.43
2024-02-15T10:44:44.588Z,11.43
2024-02-15T10:47:11.313Z,11.45
2024-02-15T10:49:38.070Z,11.48
2024-02-15T10:52:05.782Z,11.48
2024-02-15T10:54:45.674Z,11.54
2024-02-15T10:57:16.426Z,11.31
2024-02-15T10:59:58.741Z,11.27
2024-02-15T11:02:35.947Z,11.21
2024-02-15T11:05:05.618Z,11.32
2024-02-15T11:07:33.476Z,11.40
2024-02-15T11:10:01.132Z,11.34
2024-02-15T11:12:29.556Z,11.50
2024-02-15T11:14:56.621Z,11.54
2024-02-15T11:17:41.351Z,11.60
2024-02-15T11:20:10.164Z,11.52
2024-02-15T11:22:37.805Z,11.52
2024-02-15T11:25:10.025Z,11.54
2024-02-15T11:27:44.991Z,11.59
2024-02-15T11:30:13.826Z,11.63
2024-02-15T11:32:42.082Z,11.47
2024-02-15T11:35:15.532Z,11.35
2024-02-15T11:37:55.166Z,11.20
2024-02-15T11:40:42.464Z,11.25
2024-02-15T11:43:12.617Z,11.29
2024-02-15T11:45:42.575Z,11.31
2024-02-15T11:48:14.295Z,11.33
2024-02-15T11:50:42.482Z,11.43
2024-02-15T11:53:13.405Z,11.43
2024-02-15T11:55:42.614Z,11.35
2024-02-15T11:58:10.557Z,11.39
2024-02-15T12:00:57.622Z,11.47
2024-02-15T12:03:52.402Z,11.53
2024-02-15T12:06:50.833Z,11.55
2024-02-15T12:09:40.007Z,11.68
2024-02-15T12:12:26.120Z,11.52
2024-02-15T12:15:21.178Z,11.44
2024-02-15T12:18:06.827Z,11.47
2024-02-15T12:20:34.349Z,11.48
2024-02-15T12:23:01.890Z,11.60
2024-02-15T12:25:28.889Z,11.38
2024-02-15T12:28:01.078Z,11.31
2024-02-15T12:30:34.114Z,11.27
2024-02-15T12:33:12.660Z,11.33
2024-02-15T12:35:39.648Z,11.34
2024-02-15T12:38:06.682Z,11.34
2024-02-15T12:40:35.373Z,11.44
2024-02-15T12:43:02.218Z,11.47
2024-02-15T12:45:31.228Z,11.43
2024-02-15T12:47:59.070Z,11.50
2024-02-15T12:50:30.842Z,11.33
2024-02-15T12:53:03.270Z,11.47
2024-02-15T12:55:37.390Z,11.54
2024-02-15T12:58:09.693Z,11.52
2024-02-15T13:00:40.136Z,11.41
2024-02-15T13:03:12.972Z,11.36
2024-02-15T13:05:41.069Z,11.44
2024-02-15T13:08:14.779Z,11.46
2024-02-15T13:10:42.100Z,11.48
2024-02-15T13:13:13.273Z,11.53
2024-02-15T13:15:40.387Z,11.58
2024-02-15T13:18:11.434Z,11.63
2024-02-15T13:20:39.252Z,11.66
2024-02-15T13:23:15.595Z,11.74
2024-02-15T13:25:44.414Z,11.78
2024-02-15T13:28:14.667Z,11.78
2024-02-15T13:30:44.260Z,11.85
2024-02-15T13:33:11.471Z,11.93
2024-02-15T13:35:38.419Z,11.65
2024-02-15T13:38:04.978Z,11.66
2024-02-15T13:40:32.877Z,11.55
2024-02-15T13:43:01.090Z,11.42
2024-02-15T13:45:34.333Z,11.39
2024-02-15T13:48:04.670Z,11.43
2024-02-15T13:50:32.380Z,11.49
2024-02-15T13:52:59.780Z,11.56
2024-02-15T13:55:27.438Z,11.54
2024-02-15T13:57:55.195Z,11.43
2024-02-15T14:00:30.539Z,11.20
2024-02-15T14:02:59.608Z,11.22
2024-02-15T14:05:31.630Z,11.17
2024-02-15T14:08:03.458Z,11.16
2024-02-15T14:10:31.753Z,11.24
2024-02-15T14:13:04.780Z,11.28
2024-02-15T14:15:31.839Z,11.30
2024-02-15T14:18:02.533Z,11.36
2024-02-15T14:20:29.222Z,11.40
2024-02-15T14:22:58.776Z,11.41
2024-02-15T14:25:32.332Z,11.41
2024-02-15T14:27:59.483Z,11.42
2024-02-15T14:30:44.898Z,11.51
2024-02-15T14:35:47.351Z,11.54
2024-02-15T14:38:14.967Z,11.62
2024-02-15T14:40:46.250Z,11.64
2024-02-15T14:43:19.793Z,11.58
2024-02-15T14:45:46.984Z,11.46
2024-02-15T14:48:14.705Z,11.47
2024-02-15T14:50:41.727Z,11.56
2024-02-15T14:53:09.219Z,11.55
2024-02-15T14:55:36.939Z,11.52
2024-02-15T14:58:04.873Z,11.55
2024-02-15T15:00:37.906Z,11.64
2024-02-15T15:03:05.540Z,11.71
2024-02-15T15:05:51.242Z,11.80
2024-02-15T15:08:36.224Z,11.88
2024-02-15T15:11:21.392Z,11.84
2024-02-15T15:13:48.028Z,11.94
2024-02-15T15:16:18.922Z,11.99
2024-02-15T15:18:47.474Z,11.78
2024-02-15T15:21:17.803Z,11.73
2024-02-15T15:23:44.873Z,11.70
2024-02-15T15:26:12.644Z,11.60
2024-02-15T15:28:40.109Z,11.48
2024-02-15T15:31:08.353Z,11.37
2024-02-15T15:33:35.230Z,11.42
2024-02-15T15:36:02.067Z,11.47
2024-02-15T15:38:28.719Z,11.54
2024-02-15T15:40:55.891Z,11.58
2024-02-15T15:43:24.369Z,11.58
2024-02-15T15:45:52.546Z,11.61
2024-02-15T15:48:19.474Z,11.64
2024-02-15T15:50:46.190Z,11.72
2024-02-15T15:53:12.844Z,11.79
2024-02-15T15:55:39.440Z,11.88
2024-02-15T15:58:06.573Z,11.95
2024-02-15T16:00:34.922Z,12.02
2024-02-15T16:03:02.926Z,12.06
2024-02-15T16:05:29.652Z,12.04
2024-02-15T16:07:56.398Z,12.03
2024-02-15T16:10:29.314Z,12.00
2024-02-15T16:13:01.564Z,11.96
2024-02-15T16:15:28.756Z,11.96
2024-02-15T16:17:55.934Z,11.99
2024-02-15T16:20:23.987Z,12.01
2024-02-15T16:22:50.862Z,11.99
2024-02-15T16:25:17.759Z,12.00
2024-02-15T16:27:44.903Z,11.97
2024-02-15T16:30:12.475Z,11.95
2024-02-15T16:32:39.738Z,11.89
2024-02-15T16:35:12.347Z,11.85
2024-02-15T16:37:43.063Z,11.77
2024-02-15T16:40:13.010Z,11.71
2024-02-15T16:42:44.099Z,11.64
2024-02-15T16:45:13.280Z,11.49
2024-02-15T16:47:47.149Z,11.38
2024-02-15T16:50:14.668Z,11.24
2024-02-15T16:52:44.122Z,11.11
2024-02-15T16:55:11.764Z,10.95
2024-02-15T16:57:39.835Z,10.77
2024-02-15T17:00:08.586Z,10.46
2024-02-15T17:02:39.945Z,10.36
2024-02-15T17:05:09.005Z,10.25
2024-02-15T17:07:36.357Z,10.13
2024-02-15T17:10:02.842Z,10.05
2024-02-15T17:12:29.834Z,9.97
2024-02-15T17:14:56.868Z,9.80
2024-02-15T17:17:25.090Z,9.79
2024-02-15T17:19:52.669Z,9.72
2024-02-15T17:22:19.912Z,9.66
2024-02-15T17:24:46.668Z,9.60
2024-02-15T17:27:13.737Z,9.64
2024-02-15T17:29:43.126Z,9.64
2024-02-15T17:32:09.708Z,9.71
2024-02-15T17:34:36.638Z,9.74
2024-02-15T17:37:03.512Z,9.82
2024-02-15T17:39:30.122Z,9.86
2024-02-15T17:41:56.885Z,9.93
2024-02-15T17:44:23.839Z,10.00
2024-02-15T17:46:51.345Z,10.01
2024-02-15T17:49:19.574Z,10.05
2024-02-15T17:51:47.231Z,10.11
2024-02-15T17:54:15.055Z,10.17
2024-02-15T17:56:42.877Z,10.22
2024-02-15T17:59:11.527Z,10.24
2024-02-15T18:01:41.110Z,10.30
2024-02-15T18:04:08.470Z,10.34
2024-02-15T18:06:35.459Z,10.40
2024-02-15T18:09:02.313Z,10.40
2024-02-15T18:11:29.663Z,10.44
2024-02-15T18:13:56.453Z,10.42
2024-02-15T18:16:23.227Z,10.44
2024-02-15T18:18:50.805Z,10.42
2024-02-15T18:21:17.962Z,10.40
2024-02-15T18:23:46.459Z,10.42
2024-02-15T18:26:13.344Z,10.46
2024-02-15T18:28:40.003Z,10.48
2024-02-15T18:31:09.554Z,10.50
2024-02-15T18:33:40.666Z,10.54
2024-02-15T18:36:09.994Z,10.58
2024-02-15T18:38:40.424Z,10.54
2024-02-15T18:41:07.340Z,10.53
2024-02-15T18:43:35.998Z,10.51
2024-02-15T18:46:02.932Z,10.51
2024-02-15T18:48:33.504Z,10.48
2024-02-15T18:51:00.415Z,10.35
2024-02-15T18:53:27.089Z,10.28
2024-02-15T18:55:56.871Z,10.23
2024-02-15T18:58:26.987Z,10.04
2024-02-15T19:00:58.230Z,10.01
2024-02-15T19:03:26.322Z,9.99
2024-02-15T19:05:53.396Z,9.90
2024-02-15T19:08:20.851Z,9.92
2024-02-15T19:10:47.910Z,9.86
2024-02-15T19:13:15.025Z,9.85
2024-02-15T19:15:41.740Z,9.77
2024-02-15T19:18:12.140Z,9.65
2024-02-15T19:20:39.617Z,9.41
2024-02-15T19:23:09.244Z,9.42
2024-02-15T19:25:36.167Z,9.39
2024-02-15T19:28:06.545Z,9.16
2024-02-15T19:30:33.638Z,9.09
2024-02-15T19:33:00.462Z,9.05
2024-02-15T19:35:27.188Z,8.95
2024-02-15T19:37:53.811Z,8.82
2024-02-15T19:40:20.848Z,8.80
2024-02-15T19:42:49.821Z,8.85
2024-02-15T19:45:21.795Z,8.84
2024-02-15T19:47:50.660Z,8.86
2024-02-15T19:50:23.280Z,8.77
2024-02-15T19:52:50.366Z,8.67
2024-02-15T19:55:17.390Z,8.63
2024-02-15T19:57:44.204Z,8.63
2024-02-15T20:00:11.621Z,8.71
2024-02-15T20:02:38.491Z,8.72
2024-02-15T20:05:08.102Z,8.73
2024-02-15T20:07:38.595Z,8.76
2024-02-15T20:10:09.032Z,8.75
2024-02-15T20:12:37.193Z,8.79
2024-02-15T20:15:04.786Z,8.85
2024-02-15T20:17:31.866Z,8.92
2024-02-15T20:19:58.871Z,8.93
2024-02-15T20:22:25.653Z,9.03
2024-02-15T20:24:52.229Z,9.06
2024-02-15T20:27:22.729Z,9.16
2024-02-15T20:29:52.991Z,9.24
2024-02-15T20:32:19.867Z,9.21
2024-02-15T20:34:47.465Z,9.23
2024-02-15T20:37:15.111Z,9.23
2024-02-15T20:39:41.794Z,9.30
2024-02-15T20:42:09.651Z,9.37
2024-02-15T20:44:38.119Z,9.42
2024-02-15T20:47:11.192Z,9.47
2024-02-15T20:49:40.135Z,9.53
2024-02-15T20:52:08.458Z,9.56
2024-02-15T20:54:35.173Z,9.59
2024-02-15T20:57:02.007Z,9.64
2024-02-15T20:59:28.791Z,9.56
2024-02-15T21:01:55.967Z,9.50
2024-02-15T21:04:22.909Z,9.49
2024-02-15T21:06:50.440Z,9.52
2024-02-15T21:09:17.631Z,9.58
2024-02-15T21:11:47.962Z,9.61
2024-02-15T21:14:15.919Z,9.57
2024-02-15T21:16:43.581Z,9.58
2024-02-15T21:19:11.037Z,9.63
2024-02-15T21:21:38.627Z,9.64
2024-02-15T21:24:07.107Z,9.68
2024-02-15T21:26:34.135Z,9.73
2024-02-15T21:29:00.833Z,9.77
2024-02-15T21:31:27.571Z,9.71
2024-02-15T21:33:55.535Z,9.72
2024-02-15T21:36:22.722Z,9.67
2024-02-15T21:38:51.729Z,9.70
2024-02-15T21:41:18.585Z,9.69
2024-02-15T21:43:45.264Z,9.73
2024-02-15T21:46:12.434Z,9.76
2024-02-15T21:48:39.221Z,9.82
2024-02-15T21:51:06.524Z,9.84
2024-02-15T21:53:33.516Z,9.86
2024-02-15T21:56:00.872Z,9.86
2024-02-15T21:58:28.015Z,9.82
2024-02-15T22:00:56.221Z,9.82
2024-02-15T22:03:24.301Z,9.87
2024-02-15T22:05:51.452Z,9.91
2024-02-15T22:08:18.578Z,9.97
2024-02-15T22:10:45.229Z,9.99
2024-02-15T22:13:15.055Z,10.02
2024-02-15T22:15:42.093Z,10.02
2024-02-15T22:18:09.430Z,10.03
2024-02-15T22:20:36.447Z,10.05
2024-02-15T22:23:03.945Z,10.08
2024-02-15T22:25:33.766Z,10.09
2024-02-15T22:28:00.476Z,10.09
2024-02-15T22:30:27.214Z,10.09
2024-02-15T22:32:54.333Z,10.11
2024-02-15T22:35:21.038Z,10.12
2024-02-15T22:37:48.769Z,10.12
2024-02-15T22:40:15.956Z,10.11
2024-02-15T22:42:42.730Z,10.11
2024-02-15T22:45:10.882Z,10.09
2024-02-15T22:47:37.853Z,10.02
2024-02-15T22:50:05.172Z,10.03
2024-02-15T22:52:31.716Z,10.07
2024-02-15T22:55:05.594Z,10.05
2024-02-15T22:57:33.056Z,10.02
2024-02-15T23:00:00.972Z,9.94
2024-02-15T23:02:27.678Z,9.94
2024-02-15T23:04:54.315Z,9.94
2024-02-15T23:07:24.446Z,9.88
2024-02-15T23:09:51.389Z,9.88
2024-02-15T23:12:18.092Z,9.91
2024-02-15T23:14:45.677Z,9.93
2024-02-15T23:17:12.519Z,9.94
2024-02-15T23:19:40.422Z,9.90
2024-02-15T23:22:10.060Z,9.88
2024-02-15T23:24:38.633Z,9.88
2024-02-15T23:27:06.729Z,9.86
2024-02-15T23:29:33.610Z,9.87
2024-02-15T23:32:00.167Z,9.84
2024-02-15T23:34:27.005Z,9.83
2024-02-15T23:37:12.308Z,9.82
2024-02-15T23:39:59.198Z,9.75
2024-02-15T23:42:26.924Z,9.76
2024-02-15T23:44:53.790Z,9.72
2024-02-15T23:47:20.709Z,9.72
2024-02-15T23:49:47.508Z,9.71
2024-02-15T23:52:14.072Z,9.67
2024-02-15T23:54:40.738Z,9.67
2024-02-15T23:57:07.742Z,9.63
2024-02-15T23:59:34.685Z,9.61
